createdAt,value
2022-10-30T00:01:11.329Z,0.90
2022-10-30T00:03:56.309Z,0.73
2022-10-30T00:06:30.627Z,1.88
2022-10-30T00:09:23.139Z,3.08
2022-10-30T00:20:55.636Z,1.80
2022-10-30T00:23:41.717Z,1.00
2022-10-30T00:26:13.221Z,1.17
2022-10-30T00:28:54.024Z,1.52
2022-10-30T00:34:42.241Z,1.73
2022-10-30T00:40:32.704Z,2.00
2022-10-30T00:43:10.544Z,0.77
2022-10-30T00:45:50.359Z,1.77
2022-10-30T00:48:30.426Z,1.48
2022-10-30T00:53:54.185Z,1.38
2022-10-30T00:56:50.378Z,1.08
2022-10-30T00:59:28.493Z,1.55
2022-10-30T01:02:18.773Z,0.75
2022-10-30T01:05:01.232Z,0.93
2022-10-30T01:07:29.044Z,1.83
2022-10-30T01:10:06.061Z,1.63
2022-10-30T01:12:41.753Z,1.20
2022-10-30T01:18:45.866Z,0.70
2022-10-30T01:21:58.553Z,0.75
2022-10-30T01:24:53.318Z,1.75
2022-10-30T01:27:36.752Z,0.82
2022-10-30T01:30:42.732Z,0.80
2022-10-30T01:33:35.293Z,0.93
2022-10-30T01:42:57.446Z,1.10
2022-10-30T01:46:10.390Z,0.55
2022-10-30T01:49:08.266Z,2.25
2022-10-30T01:52:15.034Z,0.77
2022-10-30T01:55:23.839Z,0.63
2022-10-30T01:58:28.071Z,0.93
2022-10-30T02:01:12.260Z,0.95
2022-10-30T02:03:44.645Z,1.08
2022-10-30T02:06:18.929Z,0.60
2022-10-30T02:09:08.375Z,1.05
2022-10-30T02:11:53.135Z,0.75
2022-10-30T02:17:28.141Z,0.40
2022-10-30T02:20:06.978Z,0.63
2022-10-30T02:22:47.142Z,0.43
2022-10-30T02:25:27.345Z,1.02
2022-10-30T02:28:05.900Z,0.73
2022-10-30T02:30:43.585Z,0.80
2022-10-30T02:33:22.649Z,1.08
2022-10-30T02:35:55.111Z,0.63
2022-10-30T02:50:00.912Z,0.75
2022-10-30T02:52:55.701Z,0.57
2022-10-30T03:10:10.250Z,0.47
2022-10-30T03:12:58.279Z,1.00
2022-10-30T03:15:47.221Z,0.28
2022-10-30T03:18:20.513Z,0.95
2022-10-30T03:21:02.812Z,0.17
2022-10-30T03:23:47.980Z,0.22
2022-10-30T03:29:18.637Z,0.65
2022-10-30T03:34:42.804Z,0.50
2022-10-30T03:37:26.020Z,0.45
2022-10-30T03:40:02.679Z,1.85
2022-10-30T03:45:27.645Z,0.20
2022-10-30T03:48:07.133Z,1.38
2022-10-30T03:50:47.434Z,1.50
2022-10-30T03:53:31.191Z,0.73
2022-10-30T03:56:12.214Z,1.88
2022-10-30T03:58:53.822Z,0.30
2022-10-30T04:01:33.924Z,1.27
2022-10-30T04:04:26.935Z,0.90
2022-10-30T04:09:47.124Z,0.75
2022-10-30T04:15:10.162Z,0.93
2022-10-30T04:18:08.361Z,0.73
2022-10-30T04:21:02.197Z,0.88
2022-10-30T04:26:25.483Z,0.63
2022-10-30T04:29:05.937Z,0.60
2022-10-30T04:31:44.692Z,0.40
2022-10-30T04:34:22.480Z,0.30
2022-10-30T04:37:04.558Z,0.47
2022-10-30T04:39:46.364Z,0.60
2022-10-30T04:42:19.017Z,0.22
2022-10-30T04:44:57.948Z,0.32
2022-10-30T04:47:56.638Z,0.60
2022-10-30T04:50:32.735Z,1.08
2022-10-30T04:53:24.021Z,0.38
2022-10-30T05:01:55.592Z,0.43
2022-10-30T05:07:30.195Z,1.45
2022-10-30T05:10:07.017Z,1.55
2022-10-30T05:12:38.301Z,0.30
2022-10-30T05:15:08.686Z,0.43
2022-10-30T05:20:36.180Z,0.52
2022-10-30T05:23:15.830Z,0.63
2022-10-30T05:25:54.648Z,0.73
2022-10-30T05:28:32.156Z,1.38
2022-10-30T05:31:03.395Z,0.40
2022-10-30T05:33:43.886Z,0.82
2022-10-30T05:42:22.253Z,0.75
2022-10-30T05:45:01.968Z,0.30
2022-10-30T05:47:47.937Z,0.40
2022-10-30T05:56:08.121Z,0.90
2022-10-30T05:58:49.716Z,0.30
2022-10-30T06:01:31.406Z,0.20
2022-10-30T06:07:04.573Z,0.52
2022-10-30T06:09:40.901Z,0.20
2022-10-30T06:12:17.296Z,0.50
2022-10-30T06:20:37.579Z,0.35
2022-10-30T06:23:14.300Z,0.60
2022-10-30T06:25:55.509Z,0.85
2022-10-30T06:28:27.177Z,0.32
2022-10-30T06:31:10.222Z,0.65
2022-10-30T06:39:32.737Z,2.35
2022-10-30T06:42:21.185Z,1.08
2022-10-30T06:47:54.095Z,0.35
2022-10-30T06:50:26.500Z,0.38
2022-10-30T06:53:03.477Z,0.68
2022-10-30T07:01:34.176Z,0.77
2022-10-30T07:04:15.883Z,0.55
2022-10-30T07:09:47.478Z,0.68
2022-10-30T07:12:25.983Z,0.75
2022-10-30T07:15:02.461Z,0.50
2022-10-30T07:17:52.005Z,0.57
2022-10-30T07:20:31.159Z,0.52
2022-10-30T07:26:07.530Z,1.27
2022-10-30T07:28:46.332Z,0.43
2022-10-30T07:37:13.286Z,0.93
2022-10-30T07:39:52.793Z,1.20
2022-10-30T07:42:36.395Z,1.02
2022-10-30T07:45:12.666Z,0.22
2022-10-30T07:47:45.543Z,0.70
2022-10-30T07:50:21.107Z,0.63
2022-10-30T07:52:59.527Z,0.50
2022-10-30T07:55:26.557Z,0.50
2022-10-30T07:58:09.750Z,1.05
2022-10-30T08:00:49.207Z,0.50
2022-10-30T08:03:26.910Z,0.93
2022-10-30T08:06:03.295Z,0.68
2022-10-30T08:08:43.170Z,1.00
2022-10-30T08:11:20.290Z,0.40
2022-10-30T08:16:44.739Z,2.38
2022-10-30T08:25:07.342Z,0.32
2022-10-30T08:27:46.719Z,0.60
2022-10-30T08:30:23.225Z,1.63
2022-10-30T08:33:05.402Z,0.77
2022-10-30T08:35:44.986Z,1.92
2022-10-30T08:38:21.439Z,0.38
2022-10-30T08:41:01.890Z,0.82
2022-10-30T08:46:44.480Z,1.42
2022-10-30T08:49:24.920Z,0.50
2022-10-30T08:52:01.930Z,0.32
2022-10-30T08:54:40.441Z,0.47
2022-10-30T08:57:13.207Z,1.02
2022-10-30T08:59:45.860Z,0.40
2022-10-30T09:02:15.893Z,0.80
2022-10-30T09:04:56.522Z,0.70
2022-10-30T09:07:24.265Z,0.95
2022-10-30T09:10:04.561Z,1.08
2022-10-30T09:12:47.268Z,1.00
2022-10-30T09:18:11.521Z,1.02
2022-10-30T09:20:52.150Z,1.25
2022-10-30T09:23:25.738Z,1.25
2022-10-30T09:26:12.086Z,2.33
2022-10-30T09:28:52.954Z,0.70
2022-10-30T09:31:30.288Z,1.45
2022-10-30T09:34:13.050Z,1.08
2022-10-30T09:36:52.188Z,1.02
2022-10-30T09:39:25.022Z,1.10
2022-10-30T09:42:29.794Z,1.00
2022-10-30T09:45:37.001Z,2.83
2022-10-30T09:48:32.685Z,0.82
2022-10-30T09:51:50.183Z,1.05
2022-10-30T09:54:49.297Z,2.08
2022-10-30T09:57:51.635Z,1.80
2022-10-30T10:06:35.415Z,1.08
2022-10-30T10:12:31.095Z,2.00
2022-10-30T10:15:18.231Z,0.52
2022-10-30T10:20:44.616Z,1.63
2022-10-30T10:27:16.183Z,0.80
2022-10-30T10:29:46.753Z,2.30
2022-10-30T10:32:35.073Z,0.95
2022-10-30T10:35:48.084Z,0.60
2022-10-30T10:45:17.108Z,0.98
2022-10-30T10:51:51.014Z,0.77
2022-10-30T10:54:44.619Z,1.10
2022-10-30T10:57:48.952Z,0.88
2022-10-30T11:03:27.283Z,0.90
2022-10-30T11:06:48.293Z,0.63
2022-10-30T11:09:29.726Z,0.88
2022-10-30T11:12:10.353Z,1.27
2022-10-30T11:15:05.722Z,0.40
2022-10-30T11:18:10.715Z,1.15
2022-10-30T11:21:41.191Z,0.75
2022-10-30T11:28:22.928Z,1.58
2022-10-30T11:37:04.896Z,0.57
2022-10-30T11:39:49.002Z,2.05
2022-10-30T11:42:22.934Z,1.05
2022-10-30T11:45:02.297Z,1.13
2022-10-30T11:47:44.299Z,1.17
2022-10-30T11:53:39.161Z,1.02
2022-10-30T11:59:20.383Z,1.08
2022-10-30T12:02:42.425Z,0.32
2022-10-30T12:05:43.636Z,0.90
2022-10-30T12:08:23.775Z,1.23
2022-10-30T12:11:08.463Z,0.70
2022-10-30T12:13:50.025Z,0.68
2022-10-30T12:16:21.652Z,0.77
2022-10-30T12:19:40.516Z,0.73
2022-10-30T12:25:03.459Z,2.28
2022-10-30T12:30:31.483Z,1.10
2022-10-30T12:33:33.739Z,1.23
2022-10-30T12:36:21.535Z,1.50
2022-10-30T12:39:42.932Z,1.55
2022-10-30T12:42:41.108Z,2.33
2022-10-30T12:48:54.572Z,3.72
2022-10-30T12:55:22.733Z,3.83
2022-10-30T12:58:30.931Z,2.45
2022-10-30T13:01:50.513Z,3.30
2022-10-30T13:05:02.953Z,3.47
2022-10-30T13:11:47.374Z,3.25
2022-10-30T13:14:35.919Z,3.97
2022-10-30T13:17:16.144Z,4.57
2022-10-30T13:19:47.582Z,5.15
2022-10-30T13:26:25.833Z,7.60
2022-10-30T13:29:23.859Z,10.70
2022-10-30T13:35:52.434Z,9.07
2022-10-30T13:39:02.823Z,10.90
2022-10-30T13:42:13.700Z,10.45
2022-10-30T13:45:16.371Z,8.65
2022-10-30T13:48:35.510Z,10.23
2022-10-30T13:52:00.691Z,10.43
2022-10-30T13:54:39.257Z,11.80
2022-10-30T13:57:52.588Z,8.38
2022-10-30T14:04:07.416Z,7.95
2022-10-30T14:14:10.271Z,7.18
2022-10-30T14:17:16.666Z,8.25
2022-10-30T14:20:30.572Z,7.20
2022-10-30T14:26:18.885Z,7.47
2022-10-30T14:29:35.656Z,7.55
2022-10-30T14:32:37.956Z,8.80
2022-10-30T14:38:41.609Z,6.72
2022-10-30T14:41:50.179Z,6.82
2022-10-30T14:44:48.626Z,8.77
2022-10-30T14:51:23.915Z,6.47
2022-10-30T14:56:54.905Z,5.78
2022-10-30T15:01:57.994Z,6.75
2022-10-30T15:11:29.525Z,5.07
2022-10-30T15:17:41.923Z,6.18
2022-10-30T15:20:35.477Z,4.93
2022-10-30T15:23:29.533Z,7.93
2022-10-30T15:26:11.516Z,4.40
2022-10-30T15:28:47.952Z,3.88
2022-10-30T15:31:46.160Z,4.78
2022-10-30T15:40:23.398Z,5.32
2022-10-30T15:43:03.163Z,6.00
2022-10-30T15:45:43.602Z,4.40
2022-10-30T15:48:36.940Z,6.13
2022-10-30T15:51:27.732Z,5.40
2022-10-30T15:54:21.881Z,6.88
2022-10-30T15:57:43.165Z,3.92
2022-10-30T16:00:36.505Z,4.45
2022-10-30T16:03:35.359Z,3.97
2022-10-30T16:06:33.985Z,6.07
2022-10-30T16:09:21.402Z,4.03
2022-10-30T16:14:53.645Z,4.95
2022-10-30T16:17:43.252Z,5.88
2022-10-30T16:23:03.253Z,7.00
2022-10-30T16:25:46.996Z,4.78
2022-10-30T16:31:57.792Z,7.82
2022-10-30T16:34:38.790Z,5.25
2022-10-30T16:37:13.879Z,6.10
2022-10-30T16:39:47.182Z,5.45
2022-10-30T16:42:29.522Z,4.82
2022-10-30T16:45:26.001Z,4.85
2022-10-30T16:50:58.159Z,7.40
2022-10-30T16:56:37.072Z,6.22
2022-10-30T17:02:28.676Z,7.32
2022-10-30T17:05:24.587Z,3.60
2022-10-30T17:08:22.718Z,6.03
2022-10-30T17:14:23.246Z,6.57
2022-10-30T17:23:30.738Z,3.88
2022-10-30T17:26:33.521Z,3.17
2022-10-30T17:29:47.926Z,3.03
2022-10-30T17:38:30.428Z,3.53
2022-10-30T17:41:18.609Z,2.75
2022-10-30T17:44:05.332Z,2.65
2022-10-30T17:46:36.831Z,4.60
2022-10-30T17:49:16.154Z,3.63
2022-10-30T17:54:58.045Z,2.90
2022-10-30T17:57:38.339Z,2.97
2022-10-30T18:00:23.596Z,1.50
2022-10-30T18:03:09.603Z,3.67
2022-10-30T18:08:49.763Z,3.35
2022-10-30T18:14:20.049Z,3.45
2022-10-30T18:17:12.692Z,2.58
2022-10-30T18:19:44.032Z,1.88
2022-10-30T18:22:20.547Z,2.35
2022-10-30T18:25:01.176Z,2.72
2022-10-30T18:27:41.155Z,3.78
2022-10-30T18:30:16.380Z,2.38
2022-10-30T18:32:49.393Z,3.08
2022-10-30T18:35:44.838Z,3.90
2022-10-30T18:38:25.137Z,4.07
2022-10-30T18:43:59.064Z,3.83
2022-10-30T18:46:39.714Z,2.83
2022-10-30T18:49:29.453Z,2.55
2022-10-30T18:54:54.106Z,3.35
2022-10-30T18:57:25.012Z,3.50
2022-10-30T19:00:04.504Z,1.08
